sensor_id;sensor_type;location;lat;lon;timestamp;P1;durP1;ratioP1;P2;durP2;ratioP2
19782;SDS011;10051;40.294;-3.754;2023-08-06T00:01:31;9.80;;;3.13;;
19782;SDS011;10051;40.294;-3.754;2023-08-06T00:03:57;9.88;;;3.13;;
19782;SDS011;10051;40.294;-3.754;2023-08-06T00:06:24;10.07;;;3.10;;
19782;SDS011;10051;40.294;-3.754;2023-08-06T00:08:49;14.32;;;3.00;;
19782;SDS011;10051;40.294;-3.754;2023-08-06T00:11:15;11.68;;;3.00;;
19782;SDS011;10051;40.294;-3.754;2023-08-06T00:13:40;12.02;;;2.80;;
19782;SDS011;10051;40.294;-3.754;2023-08-06T00:16:12;10.10;;;2.83;;
19782;SDS011;10051;40.294;-3.754;2023-08-06T00:18:38;12.15;;;3.33;;
19782;SDS011;10051;40.294;-3.754;2023-08-06T00:21:04;9.07;;;2.80;;
19782;SDS011;10051;40.294;-3.754;2023-08-06T00:23:30;9.93;;;3.00;;
19782;SDS011;10051;40.294;-3.754;2023-08-06T00:25:56;8.15;;;2.85;;
19782;SDS011;10051;40.294;-3.754;2023-08-06T00:28:21;18.77;;;3.00;;
19782;SDS011;10051;40.294;-3.754;2023-08-06T00:30:52;8.88;;;2.70;;
19782;SDS011;10051;40.294;-3.754;2023-08-06T00:33:19;8.68;;;2.45;;
19782;SDS011;10051;40.294;-3.754;2023-08-06T00:35:44;9.57;;;2.90;;
19782;SDS011;10051;40.294;-3.754;2023-08-06T00:38:10;9.77;;;2.95;;
19782;SDS011;10051;40.294;-3.754;2023-08-06T00:40:38;7.05;;;2.47;;
19782;SDS011;10051;40.294;-3.754;2023-08-06T00:43:03;15.18;;;2.67;;
19782;SDS011;10051;40.294;-3.754;2023-08-06T00:45:29;11.43;;;2.65;;
19782;SDS011;10051;40.294;-3.754;2023-08-06T00:47:56;12.88;;;2.90;;
19782;SDS011;10051;40.294;-3.754;2023-08-06T00:50:21;9.02;;;2.78;;
19782;SDS011;10051;40.294;-3.754;2023-08-06T00:52:48;15.00;;;2.85;;
19782;SDS011;10051;40.294;-3.754;2023-08-06T00:55:14;13.00;;;2.78;;
19782;SDS011;10051;40.294;-3.754;2023-08-06T00:57:40;7.55;;;2.70;;
19782;SDS011;10051;40.294;-3.754;2023-08-06T01:00:06;9.55;;;3.20;;
19782;SDS011;10051;40.294;-3.754;2023-08-06T01:02:32;16.50;;;3.47;;
19782;SDS011;10051;40.294;-3.754;2023-08-06T01:04:58;7.55;;;2.92;;
19782;SDS011;10051;40.294;-3.754;2023-08-06T01:10:14;14.88;;;3.50;;
19782;SDS011;10051;40.294;-3.754;2023-08-06T01:15:28;10.60;;;3.45;;
19782;SDS011;10051;40.294;-3.754;2023-08-06T01:17:57;16.15;;;3.53;;
19782;SDS011;10051;40.294;-3.754;2023-08-06T01:20:27;12.75;;;3.90;;
19782;SDS011;10051;40.294;-3.754;2023-08-06T01:22:56;12.95;;;3.50;;
19782;SDS011;10051;40.294;-3.754;2023-08-06T01:25:22;14.05;;;3.53;;
19782;SDS011;10051;40.294;-3.754;2023-08-06T01:27:55;11.20;;;3.28;;
19782;SDS011;10051;40.294;-3.754;2023-08-06T01:30:30;8.77;;;3.28;;
19782;SDS011;10051;40.294;-3.754;2023-08-06T01:33:03;10.90;;;3.05;;
19782;SDS011;10051;40.294;-3.754;2023-08-06T01:35:31;11.27;;;3.00;;
19782;SDS011;10051;40.294;-3.754;2023-08-06T01:37:59;14.75;;;3.38;;
19782;SDS011;10051;40.294;-3.754;2023-08-06T01:40:26;13.55;;;3.22;;
19782;SDS011;10051;40.294;-3.754;2023-08-06T01:42:54;17.10;;;3.55;;
19782;SDS011;10051;40.294;-3.754;2023-08-06T01:45:20;13.85;;;3.30;;
19782;SDS011;10051;40.294;-3.754;2023-08-06T01:47:46;15.23;;;3.50;;
19782;SDS011;10051;40.294;-3.754;2023-08-06T01:50:11;14.68;;;3.22;;
19782;SDS011;10051;40.294;-3.754;2023-08-06T01:52:37;15.65;;;3.10;;
19782;SDS011;10051;40.294;-3.754;2023-08-06T01:55:02;14.13;;;3.35;;
19782;SDS011;10051;40.294;-3.754;2023-08-06T01:57:28;12.57;;;2.88;;
19782;SDS011;10051;40.294;-3.754;2023-08-06T01:59:54;12.00;;;2.92;;
19782;SDS011;10051;40.294;-3.754;2023-08-06T02:02:19;15.75;;;2.80;;
19782;SDS011;10051;40.294;-3.754;2023-08-06T02:04:45;10.25;;;2.53;;
19782;SDS011;10051;40.294;-3.754;2023-08-06T02:07:12;12.05;;;2.67;;
19782;SDS011;10051;40.294;-3.754;2023-08-06T02:09:38;11.00;;;2.60;;
19782;SDS011;10051;40.294;-3.754;2023-08-06T02:12:03;7.15;;;2.40;;
19782;SDS011;10051;40.294;-3.754;2023-08-06T02:14:29;8.52;;;2.38;;
19782;SDS011;10051;40.294;-3.754;2023-08-06T02:16:55;6.60;;;2.33;;
19782;SDS011;10051;40.294;-3.754;2023-08-06T02:19:21;7.15;;;2.10;;
19782;SDS011;10051;40.294;-3.754;2023-08-06T02:21:46;6.47;;;2.22;;
19782;SDS011;10051;40.294;-3.754;2023-08-06T02:24:12;8.95;;;2.88;;
19782;SDS011;10051;40.294;-3.754;2023-08-06T02:26:37;7.38;;;2.10;;
19782;SDS011;10051;40.294;-3.754;2023-08-06T02:29:03;7.95;;;2.10;;
19782;SDS011;10051;40.294;-3.754;2023-08-06T02:31:28;8.05;;;2.35;;
19782;SDS011;10051;40.294;-3.754;2023-08-06T02:33:54;8.88;;;1.95;;
19782;SDS011;10051;40.294;-3.754;2023-08-06T02:36:20;5.95;;;1.95;;
19782;SDS011;10051;40.294;-3.754;2023-08-06T02:38:45;7.00;;;1.90;;
19782;SDS011;10051;40.294;-3.754;2023-08-06T02:41:11;4.88;;;1.58;;
19782;SDS011;10051;40.294;-3.754;2023-08-06T02:43:37;10.85;;;1.70;;
19782;SDS011;10051;40.294;-3.754;2023-08-06T02:46:02;3.20;;;1.48;;
19782;SDS011;10051;40.294;-3.754;2023-08-06T02:48:28;4.00;;;1.50;;
19782;SDS011;10051;40.294;-3.754;2023-08-06T02:50:56;8.07;;;1.67;;
19782;SDS011;10051;40.294;-3.754;2023-08-06T02:53:23;9.38;;;1.90;;
19782;SDS011;10051;40.294;-3.754;2023-08-06T02:55:49;3.33;;;1.70;;
19782;SDS011;10051;40.294;-3.754;2023-08-06T02:58:15;10.38;;;1.70;;
19782;SDS011;10051;40.294;-3.754;2023-08-06T03:00:42;4.50;;;1.50;;
19782;SDS011;10051;40.294;-3.754;2023-08-06T03:03:08;4.40;;;1.55;;
19782;SDS011;10051;40.294;-3.754;2023-08-06T03:05:34;5.20;;;1.60;;
19782;SDS011;10051;40.294;-3.754;2023-08-06T03:08:00;3.03;;;1.33;;
19782;SDS011;10051;40.294;-3.754;2023-08-06T03:10:26;5.85;;;1.50;;
19782;SDS011;10051;40.294;-3.754;2023-08-06T03:12:51;4.93;;;1.60;;
19782;SDS011;10051;40.294;-3.754;2023-08-06T03:15:17;3.50;;;1.40;;
19782;SDS011;10051;40.294;-3.754;2023-08-06T03:17:42;3.85;;;1.40;;
19782;SDS011;10051;40.294;-3.754;2023-08-06T03:20:09;5.97;;;1.50;;
19782;SDS011;10051;40.294;-3.754;2023-08-06T03:22:35;3.15;;;1.50;;
19782;SDS011;10051;40.294;-3.754;2023-08-06T03:25:01;4.47;;;1.50;;
19782;SDS011;10051;40.294;-3.754;2023-08-06T03:27:27;3.65;;;1.45;;
19782;SDS011;10051;40.294;-3.754;2023-08-06T03:29:52;2.78;;;1.25;;
19782;SDS011;10051;40.294;-3.754;2023-08-06T03:32:18;2.83;;;1.50;;
19782;SDS011;10051;40.294;-3.754;2023-08-06T03:34:44;4.13;;;1.50;;
19782;SDS011;10051;40.294;-3.754;2023-08-06T03:37:09;3.50;;;1.42;;
19782;SDS011;10051;40.294;-3.754;2023-08-06T03:39:35;5.28;;;1.40;;
19782;SDS011;10051;40.294;-3.754;2023-08-06T03:42:00;4.78;;;1.60;;
19782;SDS011;10051;40.294;-3.754;2023-08-06T03:44:26;6.28;;;1.55;;
19782;SDS011;10051;40.294;-3.754;2023-08-06T03:46:53;3.05;;;1.45;;
19782;SDS011;10051;40.294;-3.754;2023-08-06T03:49:19;5.90;;;1.40;;
19782;SDS011;10051;40.294;-3.754;2023-08-06T03:51:44;3.22;;;1.38;;
19782;SDS011;10051;40.294;-3.754;2023-08-06T03:54:11;10.95;;;1.48;;
19782;SDS011;10051;40.294;-3.754;2023-08-06T03:56:36;5.20;;;1.55;;
19782;SDS011;10051;40.294;-3.754;2023-08-06T03:59:02;4.05;;;1.55;;
19782;SDS011;10051;40.294;-3.754;2023-08-06T04:01:27;3.03;;;1.65;;
19782;SDS011;10051;40.294;-3.754;2023-08-06T04:03:53;5.13;;;1.40;;
19782;SDS011;10051;40.294;-3.754;2023-08-06T04:06:18;3.17;;;1.67;;
19782;SDS011;10051;40.294;-3.754;2023-08-06T04:08:44;7.15;;;1.48;;
19782;SDS011;10051;40.294;-3.754;2023-08-06T04:11:09;4.10;;;1.40;;
19782;SDS011;10051;40.294;-3.754;2023-08-06T04:13:35;4.90;;;1.20;;
19782;SDS011;10051;40.294;-3.754;2023-08-06T04:16:01;2.13;;;1.30;;
19782;SDS011;10051;40.294;-3.754;2023-08-06T04:18:27;4.57;;;1.42;;
19782;SDS011;10051;40.294;-3.754;2023-08-06T04:20:53;3.72;;;1.35;;
19782;SDS011;10051;40.294;-3.754;2023-08-06T04:23:20;3.40;;;1.30;;
19782;SDS011;10051;40.294;-3.754;2023-08-06T04:25:48;2.17;;;1.38;;
19782;SDS011;10051;40.294;-3.754;2023-08-06T04:28:14;3.88;;;1.58;;
19782;SDS011;10051;40.294;-3.754;2023-08-06T04:30:39;7.78;;;1.40;;
19782;SDS011;10051;40.294;-3.754;2023-08-06T04:33:05;2.90;;;1.33;;
19782;SDS011;10051;40.294;-3.754;2023-08-06T04:35:30;5.10;;;1.30;;
19782;SDS011;10051;40.294;-3.754;2023-08-06T04:37:56;3.65;;;1.40;;
19782;SDS011;10051;40.294;-3.754;2023-08-06T04:40:22;3.33;;;1.52;;
19782;SDS011;10051;40.294;-3.754;2023-08-06T04:42:47;6.03;;;1.45;;
19782;SDS011;10051;40.294;-3.754;2023-08-06T04:45:13;2.80;;;1.27;;
19782;SDS011;10051;40.294;-3.754;2023-08-06T04:47:38;5.28;;;1.25;;
19782;SDS011;10051;40.294;-3.754;2023-08-06T04:50:04;3.58;;;1.48;;
19782;SDS011;10051;40.294;-3.754;2023-08-06T04:52:30;5.47;;;1.30;;
19782;SDS011;10051;40.294;-3.754;2023-08-06T04:54:57;2.95;;;1.30;;
19782;SDS011;10051;40.294;-3.754;2023-08-06T04:57:23;5.35;;;1.30;;
19782;SDS011;10051;40.294;-3.754;2023-08-06T04:59:48;3.35;;;1.42;;
19782;SDS011;10051;40.294;-3.754;2023-08-06T05:02:14;3.38;;;1.23;;
19782;SDS011;10051;40.294;-3.754;2023-08-06T05:04:40;3.75;;;1.52;;
19782;SDS011;10051;40.294;-3.754;2023-08-06T05:07:05;2.67;;;1.40;;
19782;SDS011;10051;40.294;-3.754;2023-08-06T05:09:31;4.00;;;1.35;;
19782;SDS011;10051;40.294;-3.754;2023-08-06T05:11:57;3.10;;;1.40;;
19782;SDS011;10051;40.294;-3.754;2023-08-06T05:14:22;4.32;;;1.30;;
19782;SDS011;10051;40.294;-3.754;2023-08-06T05:16:48;5.25;;;1.30;;
19782;SDS011;10051;40.294;-3.754;2023-08-06T05:19:13;5.32;;;1.20;;
19782;SDS011;10051;40.294;-3.754;2023-08-06T05:21:39;5.55;;;1.10;;
19782;SDS011;10051;40.294;-3.754;2023-08-06T05:24:05;4.75;;;1.58;;
19782;SDS011;10051;40.294;-3.754;2023-08-06T05:26:30;3.15;;;1.45;;
19782;SDS011;10051;40.294;-3.754;2023-08-06T05:28:56;3.92;;;1.40;;
19782;SDS011;10051;40.294;-3.754;2023-08-06T05:31:21;2.95;;;1.40;;
19782;SDS011;10051;40.294;-3.754;2023-08-06T05:33:47;3.65;;;1.38;;
19782;SDS011;10051;40.294;-3.754;2023-08-06T05:36:12;3.33;;;1.27;;
19782;SDS011;10051;40.294;-3.754;2023-08-06T05:38:38;2.13;;;1.20;;
19782;SDS011;10051;40.294;-3.754;2023-08-06T05:41:04;4.07;;;1.30;;
19782;SDS011;10051;40.294;-3.754;2023-08-06T05:43:29;5.63;;;1.50;;
19782;SDS011;10051;40.294;-3.754;2023-08-06T05:45:55;2.08;;;1.35;;
19782;SDS011;10051;40.294;-3.754;2023-08-06T05:48:21;4.57;;;1.17;;
19782;SDS011;10051;40.294;-3.754;2023-08-06T05:50:47;1.60;;;1.20;;
19782;SDS011;10051;40.294;-3.754;2023-08-06T05:53:13;4.18;;;1.30;;
19782;SDS011;10051;40.294;-3.754;2023-08-06T05:55:38;3.38;;;1.25;;
19782;SDS011;10051;40.294;-3.754;2023-08-06T05:58:04;4.80;;;1.30;;
19782;SDS011;10051;40.294;-3.754;2023-08-06T06:00:30;3.75;;;1.30;;
19782;SDS011;10051;40.294;-3.754;2023-08-06T06:02:55;237.70;;;9.23;;
19782;SDS011;10051;40.294;-3.754;2023-08-06T06:05:21;30.77;;;2.35;;
19782;SDS011;10051;40.294;-3.754;2023-08-06T06:07:46;5.70;;;1.40;;
19782;SDS011;10051;40.294;-3.754;2023-08-06T06:10:12;2.72;;;1.33;;
19782;SDS011;10051;40.294;-3.754;2023-08-06T06:12:38;10.93;;;1.50;;
19782;SDS011;10051;40.294;-3.754;2023-08-06T06:15:04;3.40;;;1.15;;
19782;SDS011;10051;40.294;-3.754;2023-08-06T06:17:30;4.57;;;1.35;;
19782;SDS011;10051;40.294;-3.754;2023-08-06T06:19:56;2.55;;;1.20;;
19782;SDS011;10051;40.294;-3.754;2023-08-06T06:22:21;2.33;;;1.20;;
19782;SDS011;10051;40.294;-3.754;2023-08-06T06:24:47;3.28;;;1.30;;
19782;SDS011;10051;40.294;-3.754;2023-08-06T06:27:12;5.60;;;1.30;;
19782;SDS011;10051;40.294;-3.754;2023-08-06T06:29:38;3.63;;;1.33;;
19782;SDS011;10051;40.294;-3.754;2023-08-06T06:32:04;2.88;;;1.15;;
19782;SDS011;10051;40.294;-3.754;2023-08-06T06:34:30;3.08;;;1.27;;
19782;SDS011;10051;40.294;-3.754;2023-08-06T06:36:55;3.45;;;1.50;;
19782;SDS011;10051;40.294;-3.754;2023-08-06T06:39:21;7.32;;;1.38;;
19782;SDS011;10051;40.294;-3.754;2023-08-06T06:41:46;4.72;;;1.20;;
19782;SDS011;10051;40.294;-3.754;2023-08-06T06:44:12;6.55;;;1.67;;
19782;SDS011;10051;40.294;-3.754;2023-08-06T06:46:38;3.28;;;1.20;;
19782;SDS011;10051;40.294;-3.754;2023-08-06T06:49:04;5.03;;;1.10;;
19782;SDS011;10051;40.294;-3.754;2023-08-06T06:51:29;2.05;;;1.30;;
19782;SDS011;10051;40.294;-3.754;2023-08-06T06:53:57;4.65;;;1.20;;
19782;SDS011;10051;40.294;-3.754;2023-08-06T06:56:22;4.05;;;1.30;;
19782;SDS011;10051;40.294;-3.754;2023-08-06T06:58:48;3.50;;;1.25;;
19782;SDS011;10051;40.294;-3.754;2023-08-06T07:01:14;3.13;;;1.27;;
19782;SDS011;10051;40.294;-3.754;2023-08-06T07:03:39;3.83;;;1.10;;
19782;SDS011;10051;40.294;-3.754;2023-08-06T07:06:06;2.40;;;1.17;;
19782;SDS011;10051;40.294;-3.754;2023-08-06T07:08:31;3.53;;;1.33;;
19782;SDS011;10051;40.294;-3.754;2023-08-06T07:11:04;2.72;;;1.20;;
19782;SDS011;10051;40.294;-3.754;2023-08-06T07:13:31;2.58;;;1.10;;
19782;SDS011;10051;40.294;-3.754;2023-08-06T07:15:57;6.70;;;1.20;;
19782;SDS011;10051;40.294;-3.754;2023-08-06T07:18:23;6.53;;;1.30;;
19782;SDS011;10051;40.294;-3.754;2023-08-06T07:20:53;7.22;;;1.17;;
19782;SDS011;10051;40.294;-3.754;2023-08-06T07:23:23;2.38;;;1.10;;
19782;SDS011;10051;40.294;-3.754;2023-08-06T07:25:50;3.55;;;1.10;;
19782;SDS011;10051;40.294;-3.754;2023-08-06T07:28:15;3.85;;;1.23;;
19782;SDS011;10051;40.294;-3.754;2023-08-06T07:30:42;3.97;;;1.17;;
19782;SDS011;10051;40.294;-3.754;2023-08-06T07:33:08;2.47;;;1.17;;
19782;SDS011;10051;40.294;-3.754;2023-08-06T07:35:34;4.82;;;1.20;;
19782;SDS011;10051;40.294;-3.754;2023-08-06T07:38:00;4.47;;;1.30;;
19782;SDS011;10051;40.294;-3.754;2023-08-06T07:40:27;3.63;;;1.20;;
19782;SDS011;10051;40.294;-3.754;2023-08-06T07:42:53;6.00;;;2.42;;
19782;SDS011;10051;40.294;-3.754;2023-08-06T07:45:19;2.30;;;1.30;;
19782;SDS011;10051;40.294;-3.754;2023-08-06T07:47:45;1.58;;;1.08;;
19782;SDS011;10051;40.294;-3.754;2023-08-06T07:50:10;4.28;;;1.20;;
19782;SDS011;10051;40.294;-3.754;2023-08-06T07:52:36;3.13;;;1.10;;
19782;SDS011;10051;40.294;-3.754;2023-08-06T07:55:02;2.45;;;1.05;;
19782;SDS011;10051;40.294;-3.754;2023-08-06T07:57:31;3.50;;;1.10;;
19782;SDS011;10051;40.294;-3.754;2023-08-06T07:59:57;2.10;;;1.10;;
19782;SDS011;10051;40.294;-3.754;2023-08-06T08:02:23;3.85;;;1.20;;
19782;SDS011;10051;40.294;-3.754;2023-08-06T08:04:48;2.50;;;0.90;;
19782;SDS011;10051;40.294;-3.754;2023-08-06T08:07:14;4.47;;;1.35;;
19782;SDS011;10051;40.294;-3.754;2023-08-06T08:09:39;3.58;;;1.10;;
19782;SDS011;10051;40.294;-3.754;2023-08-06T08:12:05;4.55;;;1.15;;
19782;SDS011;10051;40.294;-3.754;2023-08-06T08:14:31;7.88;;;1.10;;
19782;SDS011;10051;40.294;-3.754;2023-08-06T08:17:02;2.80;;;1.00;;
19782;SDS011;10051;40.294;-3.754;2023-08-06T08:19:28;2.83;;;0.93;;
19782;SDS011;10051;40.294;-3.754;2023-08-06T08:21:54;2.80;;;1.10;;
19782;SDS011;10051;40.294;-3.754;2023-08-06T08:24:20;3.22;;;1.08;;
19782;SDS011;10051;40.294;-3.754;2023-08-06T08:26:49;3.42;;;1.33;;
19782;SDS011;10051;40.294;-3.754;2023-08-06T08:29:15;3.95;;;1.10;;
19782;SDS011;10051;40.294;-3.754;2023-08-06T08:31:40;1.70;;;0.90;;
19782;SDS011;10051;40.294;-3.754;2023-08-06T08:34:06;3.03;;;1.20;;
19782;SDS011;10051;40.294;-3.754;2023-08-06T08:36:31;2.92;;;1.10;;
19782;SDS011;10051;40.294;-3.754;2023-08-06T08:38:57;2.72;;;1.08;;
19782;SDS011;10051;40.294;-3.754;2023-08-06T08:41:23;7.50;;;1.10;;
19782;SDS011;10051;40.294;-3.754;2023-08-06T08:43:49;3.03;;;1.25;;
19782;SDS011;10051;40.294;-3.754;2023-08-06T08:46:19;4.65;;;1.10;;
19782;SDS011;10051;40.294;-3.754;2023-08-06T08:48:44;3.60;;;1.10;;
19782;SDS011;10051;40.294;-3.754;2023-08-06T08:51:11;2.05;;;1.08;;
19782;SDS011;10051;40.294;-3.754;2023-08-06T08:53:37;3.20;;;1.20;;
19782;SDS011;10051;40.294;-3.754;2023-08-06T08:56:05;6.80;;;1.20;;
19782;SDS011;10051;40.294;-3.754;2023-08-06T08:58:30;3.10;;;1.00;;
19782;SDS011;10051;40.294;-3.754;2023-08-06T09:00:56;3.72;;;0.98;;
19782;SDS011;10051;40.294;-3.754;2023-08-06T09:03:23;6.07;;;1.27;;
19782;SDS011;10051;40.294;-3.754;2023-08-06T09:05:51;3.55;;;1.20;;
19782;SDS011;10051;40.294;-3.754;2023-08-06T09:08:21;4.45;;;1.17;;
19782;SDS011;10051;40.294;-3.754;2023-08-06T09:10:52;3.33;;;1.20;;
19782;SDS011;10051;40.294;-3.754;2023-08-06T09:13:18;3.60;;;1.02;;
19782;SDS011;10051;40.294;-3.754;2023-08-06T09:15:46;4.03;;;0.90;;
19782;SDS011;10051;40.294;-3.754;2023-08-06T09:18:11;5.70;;;1.10;;
19782;SDS011;10051;40.294;-3.754;2023-08-06T09:20:40;2.50;;;1.10;;
19782;SDS011;10051;40.294;-3.754;2023-08-06T09:23:09;4.00;;;1.02;;
19782;SDS011;10051;40.294;-3.754;2023-08-06T09:25:38;5.65;;;1.00;;
19782;SDS011;10051;40.294;-3.754;2023-08-06T09:28:05;5.65;;;1.17;;
19782;SDS011;10051;40.294;-3.754;2023-08-06T09:30:32;2.47;;;0.90;;
19782;SDS011;10051;40.294;-3.754;2023-08-06T09:32:59;4.95;;;1.00;;
19782;SDS011;10051;40.294;-3.754;2023-08-06T09:35:29;1.80;;;1.10;;
19782;SDS011;10051;40.294;-3.754;2023-08-06T09:37:56;5.30;;;1.20;;
19782;SDS011;10051;40.294;-3.754;2023-08-06T09:40:32;3.08;;;1.02;;
19782;SDS011;10051;40.294;-3.754;2023-08-06T09:42:58;3.95;;;1.10;;
19782;SDS011;10051;40.294;-3.754;2023-08-06T09:45:28;4.95;;;1.20;;
19782;SDS011;10051;40.294;-3.754;2023-08-06T09:47:58;4.15;;;1.10;;
19782;SDS011;10051;40.294;-3.754;2023-08-06T09:50:31;2.95;;;1.15;;
19782;SDS011;10051;40.294;-3.754;2023-08-06T09:52:59;2.78;;;1.13;;
19782;SDS011;10051;40.294;-3.754;2023-08-06T09:55:25;2.85;;;0.90;;
19782;SDS011;10051;40.294;-3.754;2023-08-06T09:57:52;3.03;;;1.00;;
19782;SDS011;10051;40.294;-3.754;2023-08-06T10:00:19;3.45;;;1.13;;
19782;SDS011;10051;40.294;-3.754;2023-08-06T10:02:47;5.30;;;1.23;;
19782;SDS011;10051;40.294;-3.754;2023-08-06T10:05:14;3.10;;;1.10;;
19782;SDS011;10051;40.294;-3.754;2023-08-06T10:07:41;6.65;;;1.40;;
19782;SDS011;10051;40.294;-3.754;2023-08-06T10:10:09;2.25;;;1.20;;
19782;SDS011;10051;40.294;-3.754;2023-08-06T10:12:42;2.65;;;1.13;;
19782;SDS011;10051;40.294;-3.754;2023-08-06T10:15:14;3.80;;;1.30;;
19782;SDS011;10051;40.294;-3.754;2023-08-06T10:17:42;4.07;;;1.30;;
19782;SDS011;10051;40.294;-3.754;2023-08-06T10:20:10;3.58;;;1.20;;
19782;SDS011;10051;40.294;-3.754;2023-08-06T10:22:38;2.60;;;1.10;;
19782;SDS011;10051;40.294;-3.754;2023-08-06T10:25:09;7.65;;;1.55;;
19782;SDS011;10051;40.294;-3.754;2023-08-06T10:27:35;6.30;;;1.50;;
19782;SDS011;10051;40.294;-3.754;2023-08-06T10:40:39;6.30;;;1.25;;
19782;SDS011;10051;40.294;-3.754;2023-08-06T10:43:06;6.18;;;1.35;;
19782;SDS011;10051;40.294;-3.754;2023-08-06T10:45:34;4.80;;;1.40;;
19782;SDS011;10051;40.294;-3.754;2023-08-06T10:48:01;3.72;;;1.15;;
19782;SDS011;10051;40.294;-3.754;2023-08-06T10:50:27;6.75;;;1.15;;
19782;SDS011;10051;40.294;-3.754;2023-08-06T10:52:52;3.30;;;1.35;;
19782;SDS011;10051;40.294;-3.754;2023-08-06T10:55:22;6.95;;;1.40;;
19782;SDS011;10051;40.294;-3.754;2023-08-06T10:57:52;3.65;;;1.27;;
19782;SDS011;10051;40.294;-3.754;2023-08-06T11:00:18;3.58;;;1.30;;
19782;SDS011;10051;40.294;-3.754;2023-08-06T11:02:43;3.72;;;1.30;;
19782;SDS011;10051;40.294;-3.754;2023-08-06T11:05:09;5.90;;;1.20;;
19782;SDS011;10051;40.294;-3.754;2023-08-06T11:07:35;4.22;;;1.20;;
19782;SDS011;10051;40.294;-3.754;2023-08-06T11:10:04;4.60;;;1.50;;
19782;SDS011;10051;40.294;-3.754;2023-08-06T11:12:32;3.88;;;1.40;;
19782;SDS011;10051;40.294;-3.754;2023-08-06T11:14:59;4.38;;;1.30;;
19782;SDS011;10051;40.294;-3.754;2023-08-06T11:17:25;4.90;;;1.30;;
19782;SDS011;10051;40.294;-3.754;2023-08-06T11:19:53;5.68;;;1.50;;
19782;SDS011;10051;40.294;-3.754;2023-08-06T11:22:20;7.25;;;1.60;;
19782;SDS011;10051;40.294;-3.754;2023-08-06T11:24:46;3.90;;;1.30;;
19782;SDS011;10051;40.294;-3.754;2023-08-06T11:27:12;7.50;;;1.40;;
19782;SDS011;10051;40.294;-3.754;2023-08-06T11:29:39;3.80;;;1.30;;
19782;SDS011;10051;40.294;-3.754;2023-08-06T11:32:07;4.30;;;1.40;;
19782;SDS011;10051;40.294;-3.754;2023-08-06T11:34:33;6.53;;;1.30;;
19782;SDS011;10051;40.294;-3.754;2023-08-06T11:36:59;5.93;;;1.33;;
19782;SDS011;10051;40.294;-3.754;2023-08-06T11:39:25;5.32;;;1.48;;
19782;SDS011;10051;40.294;-3.754;2023-08-06T11:41:51;10.02;;;1.58;;
19782;SDS011;10051;40.294;-3.754;2023-08-06T11:44:18;3.55;;;1.52;;
19782;SDS011;10051;40.294;-3.754;2023-08-06T11:46:54;6.97;;;1.60;;
19782;SDS011;10051;40.294;-3.754;2023-08-06T11:49:40;4.93;;;1.50;;
19782;SDS011;10051;40.294;-3.754;2023-08-06T11:52:21;6.00;;;1.33;;
19782;SDS011;10051;40.294;-3.754;2023-08-06T11:55:01;6.25;;;1.70;;
19782;SDS011;10051;40.294;-3.754;2023-08-06T11:57:35;8.10;;;1.50;;
19782;SDS011;10051;40.294;-3.754;2023-08-06T12:00:05;9.88;;;1.90;;
19782;SDS011;10051;40.294;-3.754;2023-08-06T12:02:33;7.95;;;1.77;;
19782;SDS011;10051;40.294;-3.754;2023-08-06T12:05:39;5.07;;;1.50;;
19782;SDS011;10051;40.294;-3.754;2023-08-06T12:07:59;5.22;;;1.40;;
19782;SDS011;10051;40.294;-3.754;2023-08-06T12:10:30;3.30;;;1.50;;
19782;SDS011;10051;40.294;-3.754;2023-08-06T12:12:57;6.05;;;1.60;;
19782;SDS011;10051;40.294;-3.754;2023-08-06T12:15:23;6.68;;;1.50;;
19782;SDS011;10051;40.294;-3.754;2023-08-06T12:17:49;8.73;;;1.50;;
19782;SDS011;10051;40.294;-3.754;2023-08-06T12:20:15;4.40;;;1.48;;
19782;SDS011;10051;40.294;-3.754;2023-08-06T12:22:41;4.45;;;1.70;;
19782;SDS011;10051;40.294;-3.754;2023-08-06T12:25:10;6.05;;;1.65;;
19782;SDS011;10051;40.294;-3.754;2023-08-06T12:27:38;5.13;;;1.60;;
19782;SDS011;10051;40.294;-3.754;2023-08-06T12:30:06;8.52;;;1.67;;
19782;SDS011;10051;40.294;-3.754;2023-08-06T12:32:33;3.42;;;1.50;;
19782;SDS011;10051;40.294;-3.754;2023-08-06T12:34:59;3.88;;;1.70;;
19782;SDS011;10051;40.294;-3.754;2023-08-06T12:37:25;4.22;;;1.60;;
19782;SDS011;10051;40.294;-3.754;2023-08-06T12:39:51;5.55;;;2.00;;
19782;SDS011;10051;40.294;-3.754;2023-08-06T12:42:16;4.40;;;1.65;;
19782;SDS011;10051;40.294;-3.754;2023-08-06T12:44:42;4.03;;;1.48;;
19782;SDS011;10051;40.294;-3.754;2023-08-06T12:47:07;6.32;;;1.80;;
19782;SDS011;10051;40.294;-3.754;2023-08-06T12:49:33;6.60;;;1.73;;
19782;SDS011;10051;40.294;-3.754;2023-08-06T12:51:59;9.13;;;1.80;;
19782;SDS011;10051;40.294;-3.754;2023-08-06T12:54:25;6.95;;;1.80;;
19782;SDS011;10051;40.294;-3.754;2023-08-06T12:56:51;8.85;;;2.00;;
19782;SDS011;10051;40.294;-3.754;2023-08-06T12:59:17;6.63;;;1.73;;
19782;SDS011;10051;40.294;-3.754;2023-08-06T13:01:43;9.60;;;2.08;;
19782;SDS011;10051;40.294;-3.754;2023-08-06T13:04:10;4.75;;;1.75;;
19782;SDS011;10051;40.294;-3.754;2023-08-06T13:06:36;8.73;;;1.90;;
19782;SDS011;10051;40.294;-3.754;2023-08-06T13:09:05;3.58;;;1.63;;
19782;SDS011;10051;40.294;-3.754;2023-08-06T13:11:33;5.72;;;1.70;;
19782;SDS011;10051;40.294;-3.754;2023-08-06T13:14:03;7.05;;;1.63;;
19782;SDS011;10051;40.294;-3.754;2023-08-06T13:16:31;8.70;;;1.80;;
19782;SDS011;10051;40.294;-3.754;2023-08-06T13:18:57;6.63;;;1.58;;
19782;SDS011;10051;40.294;-3.754;2023-08-06T13:21:22;7.07;;;1.73;;
19782;SDS011;10051;40.294;-3.754;2023-08-06T13:23:48;6.28;;;1.83;;
19782;SDS011;10051;40.294;-3.754;2023-08-06T13:26:13;8.20;;;1.83;;
19782;SDS011;10051;40.294;-3.754;2023-08-06T13:28:40;7.88;;;1.85;;
19782;SDS011;10051;40.294;-3.754;2023-08-06T13:31:06;9.57;;;1.88;;
19782;SDS011;10051;40.294;-3.754;2023-08-06T13:33:32;5.10;;;1.80;;
19782;SDS011;10051;40.294;-3.754;2023-08-06T13:35:58;6.07;;;1.60;;
19782;SDS011;10051;40.294;-3.754;2023-08-06T13:38:23;5.55;;;1.60;;
19782;SDS011;10051;40.294;-3.754;2023-08-06T13:40:49;7.07;;;2.08;;
19782;SDS011;10051;40.294;-3.754;2023-08-06T13:43:14;4.38;;;1.55;;
19782;SDS011;10051;40.294;-3.754;2023-08-06T13:45:42;5.32;;;1.70;;
19782;SDS011;10051;40.294;-3.754;2023-08-06T13:48:07;10.63;;;1.77;;
19782;SDS011;10051;40.294;-3.754;2023-08-06T13:50:35;8.93;;;1.73;;
19782;SDS011;10051;40.294;-3.754;2023-08-06T13:53:01;5.43;;;1.73;;
19782;SDS011;10051;40.294;-3.754;2023-08-06T13:55:27;4.38;;;1.83;;
19782;SDS011;10051;40.294;-3.754;2023-08-06T13:57:52;6.53;;;1.80;;
19782;SDS011;10051;40.294;-3.754;2023-08-06T14:00:18;6.32;;;1.90;;
19782;SDS011;10051;40.294;-3.754;2023-08-06T14:02:44;5.38;;;1.80;;
19782;SDS011;10051;40.294;-3.754;2023-08-06T14:05:09;6.38;;;1.80;;
19782;SDS011;10051;40.294;-3.754;2023-08-06T14:07:35;5.38;;;1.80;;
19782;SDS011;10051;40.294;-3.754;2023-08-06T14:10:00;2.90;;;1.50;;
19782;SDS011;10051;40.294;-3.754;2023-08-06T14:12:26;6.50;;;1.70;;
19782;SDS011;10051;40.294;-3.754;2023-08-06T14:14:52;4.72;;;1.50;;
19782;SDS011;10051;40.294;-3.754;2023-08-06T14:17:17;5.40;;;2.00;;
19782;SDS011;10051;40.294;-3.754;2023-08-06T14:19:43;7.50;;;1.92;;
19782;SDS011;10051;40.294;-3.754;2023-08-06T14:22:08;5.55;;;1.65;;
19782;SDS011;10051;40.294;-3.754;2023-08-06T14:24:34;4.53;;;1.80;;
19782;SDS011;10051;40.294;-3.754;2023-08-06T14:27:00;7.28;;;1.75;;
19782;SDS011;10051;40.294;-3.754;2023-08-06T14:29:25;8.05;;;1.60;;
19782;SDS011;10051;40.294;-3.754;2023-08-06T14:31:51;8.05;;;3.20;;
19782;SDS011;10051;40.294;-3.754;2023-08-06T14:34:16;5.45;;;1.83;;
19782;SDS011;10051;40.294;-3.754;2023-08-06T14:36:42;5.57;;;1.77;;
19782;SDS011;10051;40.294;-3.754;2023-08-06T14:39:07;6.78;;;2.20;;
19782;SDS011;10051;40.294;-3.754;2023-08-06T14:41:33;4.85;;;1.73;;
19782;SDS011;10051;40.294;-3.754;2023-08-06T14:43:58;7.97;;;1.77;;
19782;SDS011;10051;40.294;-3.754;2023-08-06T14:46:24;7.00;;;1.90;;